Time;durP1;ratioP1;P1;durP2;ratioP2;P2;SDS_P1;SDS_P2;PMS_P1;PMS_P2;Temp;Humidity;BMP_temperature;BMP_pressure;BME280_temperature;BME280_humidity;BME280_pressure;Samples;Min_cycle;Max_cycle;Signal;HPM_P1;HPM_P2
2022/06/05 00:03:48;;;;;;;4.85;4.35;;;;;;;16.94;51.66;100766.88;10212815;29;20056;-81
2022/06/05 00:09:02;;;;;;;5.40;4.40;;;;;;;16.87;52.58;100763.94;10227848;29;20127;-80
2022/06/05 00:14:05;;;;;;;5.75;4.65;;;;;;;16.80;53.28;100760.13;10219901;29;20052;-81
2022/06/05 00:19:08;;;;;;;6.05;4.22;;;;;;;16.75;53.49;100749.75;10218276;29;20402;-81
2022/06/05 00:24:12;;;;;;;5.25;4.38;;;;;;;16.58;53.67;100737.03;10217491;29;20079;-81
2022/06/05 00:29:36;;;;;;;5.07;4.55;;;;;;;16.63;53.94;100732.00;10216552;29;20487;-80
2022/06/05 00:34:39;;;;;;;6.82;5.10;;;;;;;16.72;53.55;100730.22;10215709;29;20048;-81
2022/06/05 00:39:50;;;;;;;7.28;5.18;;;;;;;16.65;53.24;100729.13;10215922;29;20052;-79
2022/06/05 00:44:55;;;;;;;6.50;4.88;;;;;;;16.57;53.58;100736.19;10202049;29;20090;-80
2022/06/05 00:50:01;;;;;;;5.05;4.55;;;;;;;16.38;53.77;100741.78;10216075;29;20043;-79
2022/06/05 00:55:07;;;;;;;5.68;4.70;;;;;;;16.24;54.18;100745.81;10215316;29;20063;-81
2022/06/05 01:00:15;;;;;;;5.63;5.13;;;;;;;16.26;53.99;100746.53;10215462;29;20744;-79
2022/06/05 01:05:19;;;;;;;5.28;4.78;;;;;;;15.98;54.63;100745.69;10219903;29;20186;-78
2022/06/05 01:10:33;;;;;;;7.75;5.30;;;;;;;15.92;54.95;100747.13;10219273;29;20071;-80
2022/06/05 01:15:44;;;;;;;6.90;5.25;;;;;;;15.91;55.15;100748.16;10218536;29;20055;-78
2022/06/05 01:21:00;;;;;;;6.28;5.68;;;;;;;15.89;55.26;100747.44;10244302;29;20055;-79
2022/06/05 01:26:16;;;;;;;5.63;5.13;;;;;;;15.84;55.33;100747.03;10219960;29;20047;-80
2022/06/05 01:31:24;;;;;;;5.88;5.22;;;;;;;15.94;55.67;100741.59;10209244;29;20054;-79
2022/06/05 01:36:37;;;;;;;6.30;5.38;;;;;;;15.94;55.62;100733.47;10219040;29;20052;-80
2022/06/05 01:41:46;;;;;;;6.22;5.65;;;;;;;15.90;55.64;100730.19;10208421;29;20119;-80
2022/06/05 01:46:51;;;;;;;6.22;5.47;;;;;;;15.77;55.77;100715.28;10215351;29;20505;-80
2022/06/05 01:52:02;;;;;;;5.55;5.05;;;;;;;15.77;56.39;100707.16;10227901;29;20075;-79
2022/06/05 01:57:09;;;;;;;6.75;5.47;;;;;;;15.77;56.49;100701.72;10227155;29;20047;-79
2022/06/05 02:02:17;;;;;;;7.05;5.82;;;;;;;15.68;56.86;100707.03;10219006;29;20572;-79
2022/06/05 02:07:26;;;;;;;6.68;5.85;;;;;;;15.62;57.16;100704.09;10226453;29;20107;-78
2022/06/05 02:12:30;;;;;;;7.93;6.35;;;;;;;15.52;57.02;100706.00;10227047;29;20381;-80
2022/06/05 02:17:36;;;;;;;8.85;6.55;;;;;;;15.52;56.95;100700.56;10227134;29;20047;-78
2022/06/05 02:22:43;;;;;;;6.32;5.72;;;;;;;15.52;57.54;100704.13;10218831;29;20040;-79
2022/06/05 02:27:47;;;;;;;6.40;5.80;;;;;;;15.35;58.09;100694.94;10224032;29;20348;-79
2022/06/05 02:33:03;;;;;;;7.68;5.57;;;;;;;15.39;58.12;100703.63;10225765;29;20051;-78
2022/06/05 02:38:20;;;;;;;6.35;5.70;;;;;;;15.39;57.94;100701.78;10215931;29;20118;-79
2022/06/05 02:43:31;;;;;;;7.90;5.90;;;;;;;15.23;58.42;100679.88;10225013;29;20055;-78
2022/06/05 02:48:39;;;;;;;6.65;5.93;;;;;;;15.19;58.84;100664.91;10220369;29;20390;-77
2022/06/05 02:53:48;;;;;;;7.50;6.68;;;;;;;15.15;58.39;100656.25;10223158;29;20055;-79
2022/06/05 02:58:52;;;;;;;11.02;6.95;;;;;;;15.10;59.12;100652.28;10219126;29;20223;-78
2022/06/05 03:03:55;;;;;;;7.50;6.35;;;;;;;15.10;59.13;100639.59;10223059;29;20198;-78
2022/06/05 03:08:58;;;;;;;12.38;8.77;;;;;;;15.09;59.08;100643.31;10222740;29;20039;-78
2022/06/05 03:14:03;;;;;;;13.32;10.57;;;;;;;15.11;59.05;100648.56;10224176;29;20047;-78
2022/06/05 03:19:06;;;;;;;10.05;7.78;;;;;;;15.04;59.12;100640.19;10224207;29;20077;-79
2022/06/05 03:24:09;;;;;;;7.70;6.75;;;;;;;14.97;59.33;100633.66;10223929;29;20055;-77
2022/06/05 03:29:13;;;;;;;7.68;6.53;;;;;;;14.93;59.62;100626.84;10230331;28;20058;-79
2022/06/05 03:34:17;;;;;;;8.10;6.68;;;;;;;14.87;60.04;100609.34;10243138;28;20057;-80
2022/06/05 03:39:20;;;;;;;11.27;6.35;;;;;;;14.97;59.75;100607.44;10224452;29;20048;-78
2022/06/05 03:44:24;;;;;;;8.73;7.22;;;;;;;15.01;59.83;100599.91;10223729;29;20052;-80
2022/06/05 03:49:27;;;;;;;8.05;7.07;;;;;;;14.99;60.12;100582.97;10236964;29;20139;-79
2022/06/05 03:54:31;;;;;;;9.40;6.40;;;;;;;15.07;60.00;100574.97;10232238;29;20058;-79
2022/06/05 03:59:36;;;;;;;11.40;7.70;;;;;;;15.17;59.52;100567.66;10224393;29;20106;-79
2022/06/05 04:04:39;;;;;;;8.48;7.13;;;;;;;15.26;59.34;100568.63;10224356;29;20046;-79
2022/06/05 04:09:42;;;;;;;7.68;6.90;;;;;;;15.38;59.02;100556.59;10222584;29;20046;-79
2022/06/05 04:14:46;;;;;;;7.15;6.45;;;;;;;15.44;58.65;100556.00;10229882;29;20478;-78
2022/06/05 04:19:49;;;;;;;8.93;6.15;;;;;;;15.29;59.16;100571.00;10221315;29;20056;-78
2022/06/05 04:24:52;;;;;;;11.48;7.80;;;;;;;15.26;58.36;100566.75;10221322;29;20039;-78
2022/06/05 04:29:59;;;;;;;8.45;6.57;;;;;;;15.54;58.50;100558.66;10222406;29;20039;-79
2022/06/05 04:35:02;;;;;;;7.45;6.65;;;;;;;15.70;57.33;100566.09;10230753;29;20048;-78
2022/06/05 04:40:06;;;;;;;8.73;6.90;;;;;;;15.91;57.17;100558.53;10210970;29;20079;-77
2022/06/05 04:45:11;;;;;;;8.40;7.30;;;;;;;16.18;55.48;100561.28;10216768;29;20421;-77
2022/06/05 04:50:14;;;;;;;8.90;7.30;;;;;;;16.39;55.17;100555.56;10216231;29;20039;-79
2022/06/05 04:55:17;;;;;;;8.13;7.32;;;;;;;16.49;54.86;100549.03;10215955;29;20057;-77
2022/06/05 05:00:23;;;;;;;10.40;7.95;;;;;;;16.74;55.06;100552.75;10218782;29;20122;-80
2022/06/05 05:05:26;;;;;;;8.60;7.80;;;;;;;16.82;54.94;100560.09;10219715;29;20059;-79
2022/06/05 05:10:29;;;;;;;9.55;7.28;;;;;;;16.98;54.38;100560.16;10218943;29;20091;-78
2022/06/05 05:15:33;;;;;;;7.80;6.97;;;;;;;17.18;53.89;100566.22;10219334;29;20052;-77
2022/06/05 05:20:36;;;;;;;8.15;7.35;;;;;;;17.39;53.25;100570.41;10224315;29;20134;-80
2022/06/05 05:25:39;;;;;;;7.85;7.05;;;;;;;17.60;53.67;100572.66;10222731;29;20054;-79
2022/06/05 05:30:45;;;;;;;7.70;6.90;;;;;;;17.68;53.38;100570.78;10220979;29;20054;-80
2022/06/05 05:35:48;;;;;;;7.35;6.65;;;;;;;17.93;53.62;100555.38;10221845;29;20056;-79
2022/06/05 05:46:15;;;;;;;6.43;5.82;;;;;;;18.33;51.28;100561.03;10236494;29;20107;-80
2022/06/05 05:51:19;;;;;;;11.38;6.55;;;;;;;18.40;51.57;100559.31;10218677;29;20107;-80
2022/06/05 05:56:22;;;;;;;6.45;5.85;;;;;;;18.64;51.53;100546.72;10206595;29;20493;-79
2022/06/05 06:01:27;;;;;;;5.95;5.45;;;;;;;18.74;51.53;100537.34;10216564;29;20052;-79
2022/06/05 06:06:33;;;;;;;5.85;5.28;;;;;;;18.74;51.44;100529.19;10216743;29;20054;-79
2022/06/05 06:11:36;;;;;;;6.50;4.70;;;;;;;19.06;50.49;100540.16;10214028;29;20051;-80
2022/06/05 06:16:40;;;;;;;6.70;5.68;;;;;;;19.02;50.09;100542.38;10215949;29;20142;-79
2022/06/05 06:21:43;;;;;;;5.43;5.03;;;;;;;19.52;50.31;100538.41;10215910;29;20477;-80
2022/06/05 06:26:46;;;;;;;5.97;4.93;;;;;;;19.93;49.07;100527.25;10215733;29;20058;-79
2022/06/05 06:31:50;;;;;;;5.68;5.18;;;;;;;20.18;48.22;100518.88;10215242;29;20044;-79
2022/06/05 06:36:53;;;;;;;6.38;4.82;;;;;;;20.29;48.15;100505.63;10221966;29;20047;-79
2022/06/05 06:41:56;;;;;;;5.18;4.78;;;;;;;20.24;47.82;100499.91;10221245;29;20178;-79
2022/06/05 06:47:00;;;;;;;5.57;5.07;;;;;;;20.52;47.22;100513.78;10220305;29;20067;-79
2022/06/05 06:52:04;;;;;;;5.03;4.53;;;;;;;20.63;47.21;100522.56;10211833;29;20047;-79
2022/06/05 06:57:08;;;;;;;5.70;4.82;;;;;;;20.89;47.04;100517.47;10220632;29;20099;-78
2022/06/05 07:02:12;;;;;;;6.30;5.30;;;;;;;20.97;47.23;100517.38;10255129;23;20055;-77
2022/06/05 07:07:15;;;;;;;6.60;5.13;;;;;;;21.27;46.72;100522.00;10254883;29;20525;-77
2022/06/05 07:12:21;;;;;;;5.53;4.75;;;;;;;21.82;45.73;100501.38;10248542;28;20039;-77
2022/06/05 07:17:27;;;;;;;6.47;5.20;;;;;;;22.36;45.11;100498.06;10217070;29;20444;-77
2022/06/05 07:22:30;;;;;;;5.20;4.80;;;;;;;23.10;42.73;100491.16;10245598;29;20106;-77
2022/06/05 07:27:33;;;;;;;6.97;5.38;;;;;;;24.12;42.01;100489.31;10231212;29;20054;-76
2022/06/05 07:32:37;;;;;;;5.88;5.32;;;;;;;25.08;40.17;100481.34;10239589;29;20043;-77
2022/06/05 07:37:40;;;;;;;5.82;5.20;;;;;;;24.90;40.74;100475.69;10223031;29;20051;-77
2022/06/05 07:43:02;;;;;;;;;;;;;;;25.46;39.66;100471.44;10251237;29;20043;-76
2022/06/05 07:48:07;;;;;;;6.22;5.75;;;;;;;25.07;40.91;100468.69;10241112;28;20364;-77
2022/06/05 07:58:30;;;;;;;5.88;5.47;;;;;;;24.17;42.79;100446.47;10252898;29;20043;-76
2022/06/05 08:03:37;;;;;;;6.90;6.28;;;;;;;23.65;44.03;100443.47;10267216;29;20114;-76
2022/06/05 08:08:40;;;;;;;7.10;5.90;;;;;;;23.62;44.33;100435.66;10268375;28;20050;-77
2022/06/05 08:13:43;;;;;;;7.20;6.43;;;;;;;24.19;43.59;100422.41;10271957;29;20096;-77
2022/06/05 08:18:50;;;;;;;6.30;5.70;;;;;;;24.51;43.16;100426.16;10249434;29;20468;-77
2022/06/05 08:23:53;;;;;;;6.32;5.70;;;;;;;24.64;43.59;100419.78;10238284;29;20046;-77
2022/06/05 08:28:56;;;;;;;5.82;5.35;;;;;;;24.57;42.84;100412.63;10241410;29;20043;-77
2022/06/05 08:34:01;;;;;;;6.90;6.05;;;;;;;24.44;44.19;100414.38;10249341;29;20043;-77
2022/06/05 08:44:41;;;;;;;6.68;6.13;;;;;;;24.57;42.98;100390.66;10222440;28;20123;-77
2022/06/05 08:49:48;;;;;;;6.20;5.57;;;;;;;25.16;42.48;100381.31;10240020;29;20067;-77
2022/06/05 08:54:56;;;;;;;7.63;6.40;;;;;;;25.04;41.77;100386.69;10244673;29;20047;-77
2022/06/05 09:00:05;;;;;;;7.35;6.65;;;;;;;25.26;41.72;100362.44;10244048;29;20047;-77
2022/06/05 09:05:17;;;;;;;6.68;6.18;;;;;;;25.47;41.37;100379.63;10249331;28;20043;-77
2022/06/05 09:10:31;;;;;;;7.33;6.73;;;;;;;25.11;42.42;100379.22;10237542;29;20066;-77
2022/06/05 09:15:38;;;;;;;7.28;6.68;;;;;;;25.30;41.81;100365.59;10234531;29;20047;-77
2022/06/05 09:20:49;;;;;;;8.57;6.78;;;;;;;24.65;42.82;100361.03;10235144;29;20043;-76
2022/06/05 09:26:02;;;;;;;6.72;6.10;;;;;;;24.84;42.42;100353.78;10220232;29;20051;-77
2022/06/05 09:31:46;;;;;;;6.95;6.22;;;;;;;24.96;42.44;100364.94;10263445;28;20520;-77
2022/06/05 09:36:59;;;;;;;7.10;6.38;;;;;;;25.24;42.28;100353.56;10219320;28;20532;-77
2022/06/05 09:42:16;;;;;;;7.38;6.68;;;;;;;26.08;41.05;100345.88;10231947;29;20067;-77
2022/06/05 09:47:26;;;;;;;6.63;6.10;;;;;;;25.97;40.88;100341.13;10225252;29;20052;-77
2022/06/05 09:52:32;;;;;;;6.38;5.75;;;;;;;26.58;38.94;100336.69;10219602;29;20047;-77
2022/06/05 10:03:15;;;;;;;7.50;6.60;;;;;;;26.78;39.15;100322.63;10242084;29;20349;-77
2022/06/05 10:08:22;;;;;;;7.25;6.55;;;;;;;27.13;38.62;100303.50;10236586;28;20051;-77
2022/06/05 10:13:42;;;;;;;7.70;7.00;;;;;;;26.26;39.36;100301.88;10235995;29;20043;-77
2022/06/05 10:18:51;;;;;;;7.57;6.75;;;;;;;26.11;39.49;100311.56;10227012;29;20058;-77
2022/06/05 10:24:06;;;;;;;7.57;6.97;;;;;;;26.26;39.84;100314.81;10253491;29;20070;-76
2022/06/05 10:29:20;;;;;;;8.60;7.70;;;;;;;26.04;39.68;100315.22;10249966;29;20126;-76
2022/06/05 10:34:34;;;;;;;7.60;6.88;;;;;;;25.79;39.50;100307.03;10242115;28;20058;-76
2022/06/05 10:39:51;;;;;;;8.18;7.43;;;;;;;26.02;41.10;100313.78;10241081;29;20074;-76
2022/06/05 10:45:20;;;;;;;6.95;6.30;;;;;;;25.85;40.84;100303.38;10239683;29;20059;-76
2022/06/05 10:50:28;;;;;;;7.75;7.15;;;;;;;25.87;41.16;100296.81;10237535;29;20110;-75
2022/06/05 10:55:43;;;;;;;8.85;7.55;;;;;;;25.26;42.35;100301.13;10250203;28;20052;-76
2022/06/05 11:00:59;;;;;;;7.35;6.75;;;;;;;25.01;42.31;100284.56;10240620;28;20137;-76
2022/06/05 11:06:14;;;;;;;7.95;7.15;;;;;;;24.42;43.05;100287.44;10233702;29;20055;-76
2022/06/05 11:16:51;;;;;;;8.00;7.30;;;;;;;24.88;43.05;100285.53;10220888;29;20197;-76
2022/06/05 11:21:57;;;;;;;7.07;6.43;;;;;;;24.89;42.59;100284.44;10233882;29;20043;-76
2022/06/05 11:27:10;;;;;;;7.03;6.43;;;;;;;24.72;44.46;100290.47;10256572;28;20059;-75
2022/06/05 11:32:41;;;;;;;9.07;7.30;;;;;;;23.71;50.99;100276.44;10232768;29;20046;-76
2022/06/05 11:37:59;;;;;;;7.60;6.90;;;;;;;23.53;50.55;100279.81;10240864;29;20054;-75
2022/06/05 11:43:27;;;;;;;9.40;7.70;;;;;;;23.56;50.26;100268.41;10248296;28;20089;-76
2022/06/05 11:48:58;;;;;;;8.13;7.03;;;;;;;23.70;47.82;100255.56;10216886;29;20055;-75
2022/06/05 11:54:13;;;;;;;7.35;6.63;;;;;;;24.04;47.15;100248.94;10240819;29;20047;-76
2022/06/05 11:59:30;;;;;;;10.38;7.22;;;;;;;24.23;45.74;100244.44;10231442;29;20052;-76
2022/06/05 12:04:46;;;;;;;8.40;7.70;;;;;;;23.87;47.28;100238.44;10239583;29;20047;-77
2022/06/05 12:09:53;;;;;;;6.93;6.38;;;;;;;23.65;47.26;100242.47;10245186;29;20413;-77
2022/06/05 12:15:09;;;;;;;7.68;7.07;;;;;;;23.53;48.76;100234.06;10236137;28;20047;-76
2022/06/05 12:20:22;;;;;;;8.50;7.80;;;;;;;23.54;49.69;100223.94;10231041;29;20489;-77
2022/06/05 12:25:28;;;;;;;8.90;8.07;;;;;;;23.54;49.48;100226.69;10228892;29;20452;-78
2022/06/05 12:30:35;;;;;;;8.32;7.65;;;;;;;23.69;49.22;100226.44;10233820;29;20047;-78
2022/06/05 12:35:41;;;;;;;8.43;7.75;;;;;;;23.63;50.22;100220.75;10229319;29;20044;-78
2022/06/05 12:40:53;;;;;;;9.82;8.52;;;;;;;23.35;51.84;100221.03;10238307;29;20075;-77
2022/06/05 12:46:06;;;;;;;9.00;8.20;;;;;;;23.04;53.40;100218.91;10227980;29;20047;-77
2022/06/05 12:51:14;;;;;;;11.82;10.50;;;;;;;22.63;59.13;100216.34;10233361;29;20047;-77
2022/06/05 12:56:32;;;;;;;11.52;10.38;;;;;;;21.75;63.67;100224.38;10234023;28;20054;-78
2022/06/05 13:01:43;;;;;;;11.80;10.65;;;;;;;21.04;64.89;100230.78;10250138;23;20039;-82
2022/06/05 13:06:58;;;;;;;14.23;12.73;;;;;;;20.82;68.22;100226.34;10225389;29;20126;-79
2022/06/05 13:12:06;;;;;;;13.75;12.55;;;;;;;20.61;73.53;100210.81;10235468;29;20083;-81
2022/06/05 13:17:18;;;;;;;15.05;13.52;;;;;;;20.46;74.69;100205.38;10185502;29;20454;-81
2022/06/05 13:22:28;;;;;;;16.97;15.20;;;;;;;20.18;77.01;100197.09;10193039;29;20048;-82
2022/06/05 13:27:55;;;;;;;18.50;16.73;;;;;;;19.99;78.11;100184.91;10201110;29;20048;-84
2022/06/05 13:33:06;;;;;;;21.02;18.77;;;;;;;19.97;77.64;100187.84;10188797;29;20075;-82
2022/06/05 13:38:19;;;;;;;19.35;17.42;;;;;;;19.95;78.87;100170.81;10190608;29;20052;-81
2022/06/05 13:43:27;;;;;;;17.65;15.95;;;;;;;20.01;77.96;100155.56;10203664;29;20040;-77
2022/06/05 13:48:39;;;;;;;18.45;16.55;;;;;;;20.38;80.74;100153.69;10227066;29;20107;-79
2022/06/05 13:53:54;;;;;;;17.35;15.85;;;;;;;20.71;78.73;100134.94;10263356;28;20047;-79
2022/06/05 14:12:31;;;;;;;19.70;17.70;;;;;;;20.08;78.39;100111.00;10272466;28;20031;-80
2022/06/05 14:25:03;;;;;;;19.50;17.50;;;;;;;19.80;76.44;100070.03;10217630;29;20036;-81
2022/06/05 15:01:57;;;;;;;19.95;17.90;;;;;;;20.04;75.17;100076.97;10228845;29;20063;-81
2022/06/05 15:07:15;;;;;;;20.02;17.90;;;;;;;20.01;76.38;100063.72;10229085;29;20056;-81
2022/06/05 15:12:30;;;;;;;26.75;19.65;;;;;;;19.89;75.76;100047.03;10228463;29;20040;-82
2022/06/05 15:33:32;;;;;;;22.42;19.17;;;;;;;19.69;76.91;99996.94;10634065;27;20414;-83
2022/06/05 15:38:54;;;;;;;21.33;19.35;;;;;;;19.70;77.53;99979.56;10582540;28;20031;-82
2022/06/05 15:44:21;;;;;;;19.03;17.23;;;;;;;19.66;74.66;99962.75;10576865;28;20105;-83
2022/06/05 15:49:36;;;;;;;18.70;16.75;;;;;;;19.63;77.52;99968.56;10588768;28;20357;-83
2022/06/05 15:54:54;;;;;;;19.73;17.65;;;;;;;19.52;79.14;99957.31;10585206;28;20044;-83
2022/06/05 16:00:04;;;;;;;24.17;19.15;;;;;;;19.60;78.07;99955.34;10592671;28;20490;-81
2022/06/05 16:05:22;;;;;;;22.60;18.25;;;;;;;19.68;77.64;99960.66;10610454;28;20051;-79
2022/06/05 16:10:30;;;;;;;23.35;18.20;;;;;;;19.72;77.76;99952.97;10601420;28;20058;-82
2022/06/05 16:15:42;;;;;;;23.10;20.00;;;;;;;19.70;77.51;99956.94;10594168;28;20101;-82
2022/06/05 16:21:14;;;;;;;20.45;18.30;;;;;;;19.81;80.35;99950.94;10591708;28;20044;-83
2022/06/05 16:26:24;;;;;;;19.63;17.77;;;;;;;19.74;81.09;99947.31;10586581;28;20047;-81
2022/06/05 16:31:31;;;;;;;21.80;19.60;;;;;;;19.19;79.54;99957.78;10569772;28;20286;-80
2022/06/05 16:42:23;;;;;;;24.48;21.92;;;;;;;19.36;82.84;99959.28;10549891;28;20050;-81
2022/06/05 16:47:53;;;;;;;21.17;19.17;;;;;;;19.52;83.30;99955.44;10549292;28;20055;-81
2022/06/05 16:53:14;;;;;;;24.40;22.00;;;;;;;19.70;83.11;99949.59;10535597;28;20422;-79
2022/06/05 16:58:25;;;;;;;24.85;22.35;;;;;;;19.77;83.02;99939.56;10547309;28;20094;-81
2022/06/05 17:03:38;;;;;;;24.70;22.23;;;;;;;19.92;83.43;99925.91;10549646;28;20044;-81
2022/06/05 17:08:48;;;;;;;22.50;20.15;;;;;;;20.26;83.08;99911.47;10546425;28;20622;-81
2022/06/05 17:13:51;;;;;;;24.27;21.88;;;;;;;20.98;83.13;99895.69;10548926;28;20044;-81
2022/06/05 17:18:56;;;;;;;18.17;16.42;;;;;;;21.17;80.82;99894.13;10549400;28;20571;-81
2022/06/05 17:24:17;;;;;;;17.25;15.65;;;;;;;21.97;82.91;99888.78;10565438;28;20051;-78
2022/06/05 17:29:32;;;;;;;16.40;14.18;;;;;;;24.26;72.66;99884.50;10575934;28;20510;-80
2022/06/05 17:34:53;;;;;;;15.38;13.88;;;;;;;22.72;70.34;99887.41;10542538;28;20454;-79
2022/06/05 17:40:21;;;;;;;19.25;13.75;;;;;;;21.23;71.82;99879.66;10564093;28;20040;-78
2022/06/05 17:45:49;;;;;;;14.73;13.20;;;;;;;21.71;74.62;99881.41;10550701;28;20103;-80
2022/06/05 17:50:58;;;;;;;15.23;13.75;;;;;;;21.26;72.71;99879.25;10541223;28;20044;-80
2022/06/05 17:56:04;;;;;;;15.60;13.90;;;;;;;21.28;72.81;99866.22;10543897;28;20044;-81
2022/06/05 18:01:08;;;;;;;15.18;13.68;;;;;;;21.28;72.08;99859.91;10545278;28;20044;-81
2022/06/05 18:06:25;;;;;;;15.38;13.90;;;;;;;20.84;71.92;99864.78;10548958;28;20631;-82
2022/06/05 18:11:29;;;;;;;16.25;14.77;;;;;;;20.19;73.15;99866.97;10546703;28;20048;-81
2022/06/05 18:16:35;;;;;;;16.60;14.73;;;;;;;19.82;73.33;99873.59;10551665;28;20116;-77
2022/06/05 18:21:41;;;;;;;16.58;14.32;;;;;;;19.88;73.83;99864.63;10551464;28;20077;-79
2022/06/05 18:26:55;;;;;;;16.38;14.82;;;;;;;19.96;74.22;99861.75;10546136;28;20059;-82
2022/06/05 18:32:05;;;;;;;15.90;14.40;;;;;;;19.98;75.25;99856.94;10547712;28;20043;-81
2022/06/05 18:42:38;;;;;;;10.80;9.80;;;;;;;19.71;72.65;99846.91;10547158;28;20486;-80
2022/06/05 18:47:46;;;;;;;9.95;8.52;;;;;;;19.68;72.07;99839.94;10546724;28;20040;-79
2022/06/05 18:52:51;;;;;;;12.00;8.57;;;;;;;19.67;72.03;99839.13;10547767;28;20492;-80
2022/06/05 18:57:56;;;;;;;10.65;8.85;;;;;;;19.65;72.54;99838.47;10547895;28;20494;-83
2022/06/05 19:03:01;;;;;;;10.32;9.30;;;;;;;19.43;72.33;99850.41;10564824;22;20045;-79
2022/06/05 19:08:05;;;;;;;10.35;9.45;;;;;;;19.42;71.57;99835.94;10482632;28;20045;-79
2022/06/05 19:13:24;;;;;;;10.88;9.75;;;;;;;19.61;72.00;99831.75;10486644;28;20041;-79
2022/06/05 19:18:35;;;;;;;13.63;10.70;;;;;;;19.59;72.84;99833.81;10462471;28;20656;-80
2022/06/05 19:23:47;;;;;;;10.95;9.85;;;;;;;19.44;72.16;99862.97;10490429;28;20051;-80
2022/06/05 19:28:54;;;;;;;10.67;9.60;;;;;;;19.53;71.97;99883.59;10470867;28;20051;-80
2022/06/05 19:34:04;;;;;;;3.15;2.95;;;;;;;18.66;68.60;99921.72;10486953;28;20041;-82
2022/06/05 19:39:29;;;;;;;2.35;2.20;;;;;;;18.29;68.77;99926.19;10478897;28;20049;-81
2022/06/05 19:44:35;;;;;;;2.60;2.40;;;;;;;18.41;68.68;99937.47;10466291;28;20116;-81
2022/06/05 19:49:47;;;;;;;1.85;1.75;;;;;;;18.25;69.35;99928.44;10493046;28;20120;-82
2022/06/05 19:54:52;;;;;;;2.20;1.60;;;;;;;18.39;69.86;99920.50;10482745;28;20049;-82
2022/06/05 20:00:25;;;;;;;3.28;2.13;;;;;;;18.41;70.40;99929.31;10495166;28;20059;-81
2022/06/05 20:05:33;;;;;;;2.80;2.25;;;;;;;18.20;70.98;99944.47;10497236;28;20041;-82
2022/06/05 20:10:49;;;;;;;2.40;2.20;;;;;;;18.27;71.02;99948.13;10498405;28;20045;-82
2022/06/05 20:16:00;;;;;;;3.08;2.58;;;;;;;18.18;71.54;99954.66;10489403;28;20392;-82
2022/06/05 20:21:17;;;;;;;3.22;2.63;;;;;;;18.28;71.42;99947.09;10498447;28;20048;-79
2022/06/05 20:26:23;;;;;;;3.15;2.90;;;;;;;18.47;70.71;99923.97;10478846;28;20044;-82
2022/06/05 20:31:33;;;;;;;3.05;2.85;;;;;;;18.43;70.38;99929.94;10494199;28;20037;-81
2022/06/05 20:36:49;;;;;;;3.40;2.75;;;;;;;18.32;70.81;99948.44;10492053;28;20103;-80
2022/06/05 20:41:56;;;;;;;2.95;2.70;;;;;;;18.20;70.76;99930.88;10468777;28;20045;-81
2022/06/05 20:47:06;;;;;;;3.40;3.20;;;;;;;17.93;71.29;99935.81;10467896;28;20045;-81
2022/06/05 20:52:13;;;;;;;4.40;4.10;;;;;;;17.78;70.95;99931.41;10466861;28;20067;-80
2022/06/05 20:57:23;;;;;;;4.82;4.38;;;;;;;17.93;70.15;99943.97;10470803;28;20045;-80
2022/06/05 21:07:52;;;;;;;5.03;4.63;;;;;;;17.70;69.89;99956.75;10482754;28;20182;-80
2022/06/05 21:18:20;;;;;;;5.88;5.15;;;;;;;17.44;69.68;99947.09;10489717;28;20052;-81
2022/06/05 21:23:25;;;;;;;5.43;5.03;;;;;;;17.39;70.23;99938.66;10483830;28;20045;-80
2022/06/05 21:28:33;;;;;;;6.72;6.13;;;;;;;17.47;69.61;99941.31;10480345;28;20056;-81
2022/06/05 21:33:37;;;;;;;7.07;6.47;;;;;;;17.45;69.13;99939.78;10492224;28;20045;-80
2022/06/05 21:38:45;;;;;;;7.00;6.40;;;;;;;17.56;68.94;99933.94;10479539;28;20066;-79
2022/06/05 21:43:49;;;;;;;7.95;6.97;;;;;;;17.15;70.26;99941.50;10492998;28;20064;-79
2022/06/05 21:48:54;;;;;;;7.55;6.90;;;;;;;17.57;68.47;99953.78;10492206;28;20064;-80
2022/06/05 21:53:57;;;;;;;12.93;6.68;;;;;;;17.41;68.88;99947.44;10462413;28;20099;-78
2022/06/05 21:59:00;;;;;;;8.00;7.30;;;;;;;17.52;68.27;99948.88;10461774;28;20051;-79
2022/06/05 22:04:07;;;;;;;9.23;6.57;;;;;;;17.58;67.80;99940.03;10459290;28;20136;-77
2022/06/05 22:09:12;;;;;;;6.78;5.97;;;;;;;17.44;67.65;99946.22;10460649;28;20033;-78
2022/06/05 22:14:17;;;;;;;5.45;4.88;;;;;;;17.20;68.34;99939.09;10462637;28;20129;-77
2022/06/05 22:19:21;;;;;;;6.85;5.65;;;;;;;17.33;67.55;99935.78;10485393;28;20083;-77
2022/06/05 22:24:26;;;;;;;7.13;4.63;;;;;;;16.87;68.40;99949.25;10481985;28;20052;-78
2022/06/05 22:29:30;;;;;;;7.30;6.60;;;;;;;16.99;67.96;99942.38;10456888;28;20554;-78
2022/06/05 22:34:35;;;;;;;4.07;3.67;;;;;;;16.59;69.07;99946.94;10457477;28;20037;-78
2022/06/05 22:39:38;;;;;;;4.35;3.95;;;;;;;16.24;71.13;99991.56;10457046;28;20065;-78
2022/06/05 22:44:41;;;;;;;5.50;4.85;;;;;;;15.84;76.86;99993.25;10457248;28;20041;-77
2022/06/05 22:49:45;;;;;;;8.60;7.80;;;;;;;15.15;81.54;99990.69;10456447;28;20071;-78
2022/06/05 22:54:48;;;;;;;7.45;6.20;;;;;;;14.85;84.19;99989.38;10466898;28;20090;-77
2022/06/05 22:59:51;;;;;;;9.40;8.48;;;;;;;14.62;86.34;99997.22;10481715;28;20063;-78
2022/06/05 23:04:55;;;;;;;9.65;8.70;;;;;;;14.58;86.89;99998.53;10481861;28;20233;-77
2022/06/05 23:09:58;;;;;;;11.45;10.15;;;;;;;14.52;87.76;100005.41;10468264;28;20052;-77
2022/06/05 23:15:01;;;;;;;16.38;11.68;;;;;;;14.73;86.13;100015.88;10455850;28;20041;-77
2022/06/05 23:20:10;;;;;;;17.08;12.50;;;;;;;14.83;86.07;100011.16;10466153;28;20045;-77
2022/06/05 23:25:13;;;;;;;16.35;12.73;;;;;;;14.87;85.05;100016.28;10462036;28;20779;-76
2022/06/05 23:30:16;;;;;;;17.38;14.90;;;;;;;14.89;85.04;100011.53;10450436;28;20055;-77
2022/06/05 23:35:21;;;;;;;24.20;16.45;;;;;;;15.20;83.62;100007.28;10477877;28;20075;-77
2022/06/05 23:40:24;;;;;;;19.30;15.80;;;;;;;15.36;81.63;100014.66;10433722;28;20045;-76
2022/06/05 23:45:27;;;;;;;19.65;15.88;;;;;;;15.01;83.27;100023.78;10461471;28;20076;-77
2022/06/05 23:50:32;;;;;;;24.65;12.45;;;;;;;15.12;81.69;100023.47;10476360;28;20052;-77
2022/06/05 23:55:40;;;;;;;18.75;15.75;;;;;;;15.14;80.98;100007.06;10477114;28;20511;-77
